Time;durP1;ratioP1;P1;durP2;ratioP2;P2;SDS_P1;SDS_P2;PMS_P1;PMS_P2;Temp;Humidity;BMP_temperature;BMP_pressure;BME280_temperature;BME280_humidity;BME280_pressure;Samples;Min_cycle;Max_cycle;Signal;HPM_P1;HPM_P2
2022/01/29 00:00:10;;;;;;;;;;;26.60;88.10;;;;;;5092107;28;20394;-55
2022/01/29 00:02:37;;;;;;;;;;;26.70;88.00;;;;;;5092361;28;19991;-55
2022/01/29 00:05:04;;;;;;;;;;;26.70;88.00;;;;;;5092520;28;20373;-62
2022/01/29 00:07:31;;;;;;;;;;;26.80;87.70;;;;;;5092225;28;20330;-54
2022/01/29 00:10:03;;;;;;;;;;;26.80;87.50;;;;;;5092407;28;19961;-57
2022/01/29 00:12:30;;;;;;;;;;;26.80;87.30;;;;;;5092717;28;20278;-59
2022/01/29 00:14:58;;;;;;;;;;;26.90;87.50;;;;;;5092265;28;19953;-56
2022/01/29 00:17:24;;;;;;;;;;;26.90;87.10;;;;;;5091890;28;19931;-51
2022/01/29 00:19:51;;;;;;;;;;;27.00;86.30;;;;;;5091537;28;20319;-56
2022/01/29 00:22:18;;;;;;;;;;;27.00;86.60;;;;;;5092263;28;19919;-57
2022/01/29 00:24:45;;;;;;;;;;;27.00;86.60;;;;;;5092347;28;19919;-51
2022/01/29 00:27:11;;;;;;;;;;;27.10;87.40;;;;;;5092257;28;19908;-60
2022/01/29 00:29:40;;;;;;;;;;;27.10;86.20;;;;;;5092245;28;20240;-54
2022/01/29 00:32:09;;;;;;;;;;;27.10;85.90;;;;;;5092044;28;19908;-59
2022/01/29 00:34:36;;;;;;;;;;;27.10;85.90;;;;;;5092385;28;19908;-55
2022/01/29 00:37:03;;;;;;;;;;;27.20;85.00;;;;;;5092117;28;19939;-61
2022/01/29 00:39:30;;;;;;;;;;;27.20;85.90;;;;;;5091941;28;19969;-59
2022/01/29 00:41:56;;;;;;;;;;;27.20;85.70;;;;;;5091844;28;20362;-61
2022/01/29 00:44:23;;;;;;;;;;;27.20;85.60;;;;;;5091567;28;19953;-61
2022/01/29 00:46:50;;;;;;;;;;;27.30;85.10;;;;;;5092142;28;19919;-61
2022/01/29 00:49:16;;;;;;;;;;;27.30;85.10;;;;;;5092324;28;20339;-60
2022/01/29 00:51:46;;;;;;;;;;;27.30;85.60;;;;;;5092175;28;19908;-52
2022/01/29 00:54:13;;;;;;;;;;;27.30;85.20;;;;;;5091713;28;19948;-53
2022/01/29 00:56:39;;;;;;;;;;;27.40;84.70;;;;;;5091911;28;19909;-60
2022/01/29 00:59:06;;;;;;;;;;;27.40;85.10;;;;;;5091876;28;19924;-57
2022/01/29 01:01:33;;;;;;;;;;;27.40;84.90;;;;;;5092442;28;20335;-59
2022/01/29 01:04:00;;;;;;;;;;;27.50;85.10;;;;;;5125589;27;20002;-57
2022/01/29 01:06:27;;;;;;;;;;;27.50;84.30;;;;;;5095382;28;19969;-58
2022/01/29 01:08:53;;;;;;;;;;;27.50;85.00;;;;;;5095008;28;20003;-62
2022/01/29 01:11:20;;;;;;;;;;;27.60;84.40;;;;;;5095443;28;19912;-60
2022/01/29 01:13:47;;;;;;;;;;;27.70;84.10;;;;;;5095369;28;19908;-58
2022/01/29 01:16:14;;;;;;;;;;;27.70;84.10;;;;;;5127808;27;19907;-62
2022/01/29 01:18:40;;;;;;;;;;;27.60;84.70;;;;;;5093657;28;20433;-49
2022/01/29 01:21:07;;;;;;;;;;;27.60;84.00;;;;;;5095294;28;19918;-62
2022/01/29 01:23:34;;;;;;;;;;;27.60;84.80;;;;;;5095461;28;19908;-54
2022/01/29 01:26:02;;;;;;;;;;;27.70;84.40;;;;;;5095018;28;19915;-49
2022/01/29 01:28:29;;;;;;;;;;;27.60;84.80;;;;;;5095119;28;19915;-60
2022/01/29 01:30:55;;;;;;;;;;;27.60;85.10;;;;;;5127474;27;20270;-55
2022/01/29 01:33:22;;;;;;;;;;;27.70;85.00;;;;;;5095254;28;20299;-58
2022/01/29 01:35:53;;;;;;;;;;;27.70;84.60;;;;;;5127540;27;19918;-60
2022/01/29 01:38:24;;;;;;;;;;;27.70;83.70;;;;;;5094863;28;19961;-54
2022/01/29 01:40:56;;;;;;;;;;;27.80;83.10;;;;;;5094717;28;19908;-60
2022/01/29 01:43:23;;;;;;;;;;;27.70;84.50;;;;;;5094818;28;19954;-58
2022/01/29 01:45:50;;;;;;;;;;;27.60;84.50;;;;;;5094669;28;19908;-56
2022/01/29 01:48:17;;;;;;;;;;;27.70;84.40;;;;;;5094846;28;19916;-60
2022/01/29 01:50:44;;;;;;;;;;;27.80;84.80;;;;;;5094520;28;19908;-55
2022/01/29 01:53:12;;;;;;;;;;;27.70;84.60;;;;;;5094660;28;19908;-60
2022/01/29 01:55:39;;;;;;;;;;;27.80;84.70;;;;;;5094562;28;19908;-56
2022/01/29 01:58:05;;;;;;;;;;;27.80;84.70;;;;;;5094102;28;19923;-47
2022/01/29 02:00:32;;;;;;;;;;;27.80;84.10;;;;;;5094577;28;19946;-58
2022/01/29 02:02:59;;;;;;;;;;;27.80;84.00;;;;;;5094695;28;20304;-60
2022/01/29 02:05:26;;;;;;;;;;;27.90;83.90;;;;;;5094713;28;19908;-59
2022/01/29 02:07:53;;;;;;;;;;;27.90;84.00;;;;;;5094261;28;19912;-59
2022/01/29 02:10:20;;;;;;;;;;;27.90;83.60;;;;;;5094471;28;19997;-62
2022/01/29 02:12:51;;;;;;;;;;;27.90;83.70;;;;;;5094799;28;19908;-62
2022/01/29 02:15:19;;;;;;;;;;;27.90;84.20;;;;;;5094918;28;19908;-55
2022/01/29 02:17:46;;;;;;;;;;;27.90;84.20;;;;;;5094057;28;20315;-57
2022/01/29 02:20:18;;;;;;;;;;;27.80;84.40;;;;;;5093843;28;20284;-61
2022/01/29 02:22:45;;;;;;;;;;;27.80;84.80;;;;;;5094266;28;19912;-57
2022/01/29 02:25:30;;;;;;;;;;;27.80;84.20;;;;;;5094331;28;19908;-59
2022/01/29 02:27:58;;;;;;;;;;;27.90;84.70;;;;;;5094273;28;20261;-60
2022/01/29 02:30:28;;;;;;;;;;;27.80;84.60;;;;;;5094479;28;19951;-60
2022/01/29 02:32:55;;;;;;;;;;;27.80;84.40;;;;;;5094344;28;20200;-61
2022/01/29 02:35:22;;;;;;;;;;;27.90;84.30;;;;;;5094277;28;19908;-61
2022/01/29 02:37:51;;;;;;;;;;;27.90;84.40;;;;;;5093738;28;19924;-61
2022/01/29 02:40:19;;;;;;;;;;;28.00;84.00;;;;;;5094204;28;19916;-51
2022/01/29 02:42:46;;;;;;;;;;;27.90;84.10;;;;;;5094233;28;19908;-61
2022/01/29 02:45:12;;;;;;;;;;;28.00;84.30;;;;;;5094070;28;20373;-60
2022/01/29 02:47:39;;;;;;;;;;;28.10;84.00;;;;;;5093655;28;19922;-51
2022/01/29 02:50:07;;;;;;;;;;;28.10;83.70;;;;;;5093610;28;20239;-61
2022/01/29 02:52:34;;;;;;;;;;;28.20;83.60;;;;;;5093471;28;19919;-62
2022/01/29 02:55:01;;;;;;;;;;;28.20;83.20;;;;;;5093474;28;19927;-58
2022/01/29 02:57:27;;;;;;;;;;;28.20;83.30;;;;;;5093461;28;19961;-57
2022/01/29 03:00:00;;;;;;;;;;;28.20;83.40;;;;;;5092980;28;19908;-55
2022/01/29 03:02:29;;;;;;;;;;;28.20;83.10;;;;;;5093379;28;19908;-60
2022/01/29 03:04:57;;;;;;;;;;;28.30;83.10;;;;;;5093363;28;19919;-59
2022/01/29 03:07:24;;;;;;;;;;;28.30;83.20;;;;;;5093176;28;19924;-62
2022/01/29 03:09:50;;;;;;;;;;;28.20;83.40;;;;;;5093615;28;19927;-60
2022/01/29 03:12:17;;;;;;;;;;;28.20;83.20;;;;;;5093212;28;19908;-61
2022/01/29 03:14:44;;;;;;;;;;;28.40;83.00;;;;;;5092966;28;20380;-52
2022/01/29 03:17:11;;;;;;;;;;;28.30;83.30;;;;;;5093018;28;19912;-58
2022/01/29 03:19:38;;;;;;;;;;;28.30;83.40;;;;;;5093154;28;19955;-61
2022/01/29 03:22:04;;;;;;;;;;;28.30;83.50;;;;;;5092920;28;19915;-53
2022/01/29 03:24:31;;;;;;;;;;;28.30;83.50;;;;;;5093419;28;19995;-59
2022/01/29 03:26:58;;;;;;;;;;;28.30;83.30;;;;;;5092468;28;19912;-61
2022/01/29 03:29:24;;;;;;;;;;;28.40;81.40;;;;;;5093188;28;19927;-62
2022/01/29 03:31:51;;;;;;;;;;;28.70;81.70;;;;;;5093143;28;19915;-57
2022/01/29 03:34:18;;;;;;;;;;;28.80;82.20;;;;;;5093348;28;19916;-58
2022/01/29 03:36:44;;;;;;;;;;;28.70;80.80;;;;;;5092689;28;19927;-57
2022/01/29 03:39:11;;;;;;;;;;;28.70;81.90;;;;;;5092499;28;19961;-62
2022/01/29 03:41:38;;;;;;;;;;;28.70;82.40;;;;;;5092264;28;19961;-62
2022/01/29 03:44:07;;;;;;;;;;;28.70;80.60;;;;;;5092380;28;19912;-63
2022/01/29 03:46:34;;;;;;;;;;;28.70;81.90;;;;;;5092206;28;20040;-55
2022/01/29 03:49:00;;;;;;;;;;;28.70;82.10;;;;;;5092398;28;19924;-49
2022/01/29 03:51:27;;;;;;;;;;;28.70;82.00;;;;;;5092384;28;19909;-58
2022/01/29 03:53:54;;;;;;;;;;;28.70;80.80;;;;;;5092325;28;20020;-55
2022/01/29 03:56:21;;;;;;;;;;;28.60;81.00;;;;;;5092439;28;19916;-58
2022/01/29 03:58:47;;;;;;;;;;;28.70;80.70;;;;;;5092662;28;20385;-59
2022/01/29 04:01:14;;;;;;;;;;;28.50;82.20;;;;;;5091564;28;19990;-56
2022/01/29 04:03:41;;;;;;;;;;;28.30;82.90;;;;;;5092305;28;19934;-57
2022/01/29 04:06:08;;;;;;;;;;;28.20;83.70;;;;;;5092183;28;20040;-55
2022/01/29 04:08:41;;;;;;;;;;;28.00;84.30;;;;;;5090525;28;19933;-51
2022/01/29 04:11:10;;;;;;;;;;;27.90;84.80;;;;;;5092073;28;20274;-57
2022/01/29 04:13:39;;;;;;;;;;;27.90;85.20;;;;;;5092250;28;19908;-60
2022/01/29 04:16:06;;;;;;;;;;;28.00;84.90;;;;;;5091967;28;19908;-56
2022/01/29 04:18:33;;;;;;;;;;;28.00;85.00;;;;;;5091092;28;19922;-60
2022/01/29 04:21:00;;;;;;;;;;;28.10;84.40;;;;;;5091904;28;20002;-54
2022/01/29 04:23:27;;;;;;;;;;;28.10;84.80;;;;;;5092428;28;19951;-56
2022/01/29 04:25:54;;;;;;;;;;;28.10;84.50;;;;;;5092178;28;19908;-60
2022/01/29 04:28:24;;;;;;;;;;;28.00;85.00;;;;;;5092416;28;19993;-59
2022/01/29 04:30:57;;;;;;;;;;;28.00;85.30;;;;;;5092388;28;19909;-57
2022/01/29 04:33:28;;;;;;;;;;;28.10;85.10;;;;;;5092490;28;19912;-58
2022/01/29 04:35:56;;;;;;;;;;;28.00;85.40;;;;;;5090229;28;19916;-60
2022/01/29 04:38:23;;;;;;;;;;;28.00;85.50;;;;;;5092329;28;19916;-55
2022/01/29 04:40:50;;;;;;;;;;;27.90;85.50;;;;;;5094612;28;19909;-57
2022/01/29 04:43:16;;;;;;;;;;;28.20;85.30;;;;;;5095992;28;19908;-49
2022/01/29 04:45:43;;;;;;;;;;;28.30;84.50;;;;;;5095280;28;20242;-54
2022/01/29 04:48:10;;;;;;;;;;;28.40;84.20;;;;;;5095528;28;19908;-54
2022/01/29 04:50:37;;;;;;;;;;;28.40;84.20;;;;;;5095786;28;20297;-55
2022/01/29 04:53:04;;;;;;;;;;;28.50;84.10;;;;;;5095976;28;20003;-56
2022/01/29 04:55:31;;;;;;;;;;;28.60;84.00;;;;;;5094411;28;19958;-56
2022/01/29 04:57:58;;;;;;;;;;;28.60;84.00;;;;;;5094503;28;19969;-53
2022/01/29 05:00:25;;;;;;;;;;;28.50;84.10;;;;;;5095785;28;19935;-56
2022/01/29 05:02:53;;;;;;;;;;;28.60;84.30;;;;;;5095707;28;20378;-53
2022/01/29 05:05:20;;;;;;;;;;;28.50;84.50;;;;;;5094297;28;19916;-53
2022/01/29 05:07:47;;;;;;;;;;;28.50;84.60;;;;;;5095608;28;19919;-56
2022/01/29 05:10:14;;;;;;;;;;;28.50;85.40;;;;;;5095586;28;19908;-62
2022/01/29 05:12:53;;;;;;;;;;;28.60;85.80;;;;;;5095711;28;19915;-61
2022/01/29 05:15:35;;;;;;;;;;;28.60;84.90;;;;;;5095694;28;19908;-59
2022/01/29 05:29:05;;;;;;;;;;;28.70;85.10;;;;;;5095688;28;19914;-56
2022/01/29 05:31:31;;;;;;;;;;;28.80;85.20;;;;;;5127838;27;19912;-59
2022/01/29 05:33:58;;;;;;;;;;;28.80;84.60;;;;;;5095308;28;19908;-62
2022/01/29 05:36:25;;;;;;;;;;;28.80;84.10;;;;;;5093576;28;19923;-64
2022/01/29 05:38:52;;;;;;;;;;;28.80;83.90;;;;;;5095000;28;19923;-65
2022/01/29 05:41:19;;;;;;;;;;;28.80;84.50;;;;;;5095078;28;19916;-63
2022/01/29 05:43:46;;;;;;;;;;;28.80;83.70;;;;;;5094212;28;19969;-59
2022/01/29 05:46:14;;;;;;;;;;;28.80;83.50;;;;;;5094973;28;19908;-62
2022/01/29 05:48:41;;;;;;;;;;;28.70;85.00;;;;;;5095625;28;19915;-61
2022/01/29 05:51:08;;;;;;;;;;;28.70;84.60;;;;;;5094644;28;19912;-63
2022/01/29 05:53:35;;;;;;;;;;;28.70;85.00;;;;;;5093602;28;19957;-62
2022/01/29 05:56:02;;;;;;;;;;;28.70;84.90;;;;;;5094864;28;19908;-56
2022/01/29 05:58:28;;;;;;;;;;;28.70;85.00;;;;;;5094907;28;19916;-62
2022/01/29 06:00:55;;;;;;;;;;;28.50;84.20;;;;;;5094778;28;19916;-59
2022/01/29 06:03:22;;;;;;;;;;;28.50;85.50;;;;;;5093589;28;20411;-64
2022/01/29 06:05:48;;;;;;;;;;;28.40;85.90;;;;;;5094824;28;19908;-62
2022/01/29 06:08:15;;;;;;;;;;;28.40;86.10;;;;;;5094516;28;19924;-59
2022/01/29 06:10:42;;;;;;;;;;;28.20;85.60;;;;;;5094555;28;19943;-62
2022/01/29 06:13:10;;;;;;;;;;;28.20;86.00;;;;;;5094568;28;19966;-59
2022/01/29 06:15:48;;;;;;;;;;;28.20;86.60;;;;;;5094392;28;19909;-57
2022/01/29 06:18:18;;;;;;;;;;;28.20;86.90;;;;;;5094134;28;19923;-56
2022/01/29 06:20:45;;;;;;;;;;;28.20;86.40;;;;;;5093081;28;19943;-64
2022/01/29 06:23:14;;;;;;;;;;;28.20;86.40;;;;;;5094834;28;19908;-63
2022/01/29 06:25:40;;;;;;;;;;;28.20;86.80;;;;;;5094604;28;19908;-64
2022/01/29 06:28:07;;;;;;;;;;;28.20;86.60;;;;;;5094304;28;19999;-65
2022/01/29 06:30:34;;;;;;;;;;;28.10;87.40;;;;;;5094601;28;19977;-64
2022/01/29 06:33:10;;;;;;;;;;;28.10;87.50;;;;;;5093887;28;19915;-61
2022/01/29 06:35:37;;;;;;;;;;;28.10;87.50;;;;;;5093810;28;20041;-60
2022/01/29 06:38:05;;;;;;;;;;;27.90;87.30;;;;;;5093911;28;20362;-62
2022/01/29 06:40:31;;;;;;;;;;;27.80;88.20;;;;;;5094375;28;20318;-59
2022/01/29 06:42:58;;;;;;;;;;;27.80;87.90;;;;;;5093717;28;19912;-57
2022/01/29 06:45:25;;;;;;;;;;;27.70;88.10;;;;;;5094093;28;19974;-54
2022/01/29 06:47:51;;;;;;;;;;;27.60;88.80;;;;;;5093758;28;20224;-64
2022/01/29 06:50:18;;;;;;;;;;;27.40;89.10;;;;;;5092260;28;19930;-64
2022/01/29 06:52:45;;;;;;;;;;;27.60;89.30;;;;;;5094082;28;19919;-62
2022/01/29 06:55:12;;;;;;;;;;;27.50;89.40;;;;;;5093943;28;19962;-58
2022/01/29 06:57:38;;;;;;;;;;;27.30;90.10;;;;;;5093510;28;19916;-59
2022/01/29 07:00:08;;;;;;;;;;;27.30;90.10;;;;;;5093347;28;19912;-62
2022/01/29 07:02:35;;;;;;;;;;;27.30;90.20;;;;;;5092877;28;20336;-58
2022/01/29 07:05:03;;;;;;;;;;;27.40;90.20;;;;;;5093225;28;19908;-59
2022/01/29 07:07:30;;;;;;;;;;;27.40;90.20;;;;;;5093245;28;19908;-61
2022/01/29 07:09:57;;;;;;;;;;;27.40;90.10;;;;;;5092162;28;20374;-63
2022/01/29 07:12:25;;;;;;;;;;;27.30;89.90;;;;;;5094010;28;19908;-58
2022/01/29 07:14:52;;;;;;;;;;;27.10;90.20;;;;;;5093927;28;19908;-64
2022/01/29 07:17:22;;;;;;;;;;;27.10;90.30;;;;;;5093670;28;19912;-62
2022/01/29 07:19:52;;;;;;;;;;;27.00;90.40;;;;;;5093507;28;19912;-59
2022/01/29 07:22:19;;;;;;;;;;;27.10;90.60;;;;;;5092134;28;20416;-56
2022/01/29 07:24:50;;;;;;;;;;;27.10;90.50;;;;;;5093271;28;20270;-59
2022/01/29 07:27:16;;;;;;;;;;;27.10;90.40;;;;;;5093252;28;20373;-55
2022/01/29 07:29:44;;;;;;;;;;;27.20;90.60;;;;;;5093570;28;19926;-60
2022/01/29 07:32:11;;;;;;;;;;;27.20;90.50;;;;;;5092999;28;19984;-57
2022/01/29 07:34:38;;;;;;;;;;;27.20;90.50;;;;;;5093407;28;19908;-53
2022/01/29 07:37:05;;;;;;;;;;;27.20;90.40;;;;;;5093181;28;19920;-55
2022/01/29 07:39:31;;;;;;;;;;;27.20;90.40;;;;;;5093341;28;19920;-57
2022/01/29 07:41:58;;;;;;;;;;;27.20;90.40;;;;;;5093353;28;19965;-62
2022/01/29 07:44:25;;;;;;;;;;;27.20;90.40;;;;;;5093417;28;19915;-59
2022/01/29 07:46:52;;;;;;;;;;;27.20;90.40;;;;;;5093619;28;19919;-61
2022/01/29 07:49:19;;;;;;;;;;;27.20;90.40;;;;;;5093453;28;19908;-61
2022/01/29 07:51:46;;;;;;;;;;;27.20;90.40;;;;;;5093245;28;20602;-59
2022/01/29 07:54:12;;;;;;;;;;;27.20;90.40;;;;;;5093401;28;20283;-60
2022/01/29 07:56:39;;;;;;;;;;;27.10;90.40;;;;;;5093191;28;19909;-55
2022/01/29 07:59:06;;;;;;;;;;;27.10;90.50;;;;;;5093469;28;19920;-59
2022/01/29 08:01:32;;;;;;;;;;;27.10;90.50;;;;;;5093082;28;19913;-56
2022/01/29 08:03:59;;;;;;;;;;;27.10;90.60;;;;;;5092982;28;19908;-61
2022/01/29 08:06:29;;;;;;;;;;;27.10;90.50;;;;;;5092848;28;19920;-55
2022/01/29 08:08:56;;;;;;;;;;;27.10;90.60;;;;;;5092736;28;19920;-55
2022/01/29 08:11:23;;;;;;;;;;;27.10;90.60;;;;;;5092868;28;19915;-59
2022/01/29 08:13:54;;;;;;;;;;;27.10;90.70;;;;;;5095730;28;19908;-56
2022/01/29 08:16:21;;;;;;;;;;;27.00;90.70;;;;;;5097320;28;19915;-59
2022/01/29 08:18:48;;;;;;;;;;;27.00;90.70;;;;;;5097090;28;20310;-57
2022/01/29 08:21:15;;;;;;;;;;;27.00;90.70;;;;;;5097429;28;20343;-63
2022/01/29 08:23:49;;;;;;;;;;;27.00;90.80;;;;;;5097415;28;19908;-63
2022/01/29 08:26:15;;;;;;;;;;;27.00;90.90;;;;;;5097409;28;20239;-62
2022/01/29 08:28:42;;;;;;;;;;;27.00;90.90;;;;;;5097844;28;19908;-55
2022/01/29 08:31:09;;;;;;;;;;;26.90;91.00;;;;;;5097753;28;19915;-58
2022/01/29 08:33:36;;;;;;;;;;;26.90;91.00;;;;;;5096280;28;19908;-59
2022/01/29 08:36:03;;;;;;;;;;;26.90;91.00;;;;;;5095988;28;20388;-57
2022/01/29 08:38:30;;;;;;;;;;;26.90;91.00;;;;;;5096930;28;20373;-63
2022/01/29 08:40:58;;;;;;;;;;;26.90;91.00;;;;;;5096976;28;19915;-57
2022/01/29 08:43:26;;;;;;;;;;;26.80;91.10;;;;;;5096938;28;19994;-55
2022/01/29 08:45:53;;;;;;;;;;;26.80;91.20;;;;;;5097021;28;19912;-60
2022/01/29 08:48:20;;;;;;;;;;;26.80;91.20;;;;;;5096760;28;20426;-61
2022/01/29 08:50:50;;;;;;;;;;;26.80;91.20;;;;;;5096737;28;19912;-60
2022/01/29 08:53:18;;;;;;;;;;;26.80;91.30;;;;;;5096623;28;20358;-62
2022/01/29 08:55:45;;;;;;;;;;;26.80;91.10;;;;;;5096492;28;19924;-61
2022/01/29 08:58:13;;;;;;;;;;;26.70;91.30;;;;;;5096146;28;19999;-51
2022/01/29 09:00:44;;;;;;;;;;;26.70;91.30;;;;;;5096443;28;19912;-55
2022/01/29 09:03:13;;;;;;;;;;;26.70;91.20;;;;;;5096778;28;20043;-60
2022/01/29 09:05:39;;;;;;;;;;;26.70;91.30;;;;;;5095887;28;19998;-60
2022/01/29 09:08:06;;;;;;;;;;;26.70;91.40;;;;;;5128293;27;19928;-59
2022/01/29 09:10:33;;;;;;;;;;;26.70;91.40;;;;;;5096363;28;19908;-63
2022/01/29 09:13:00;;;;;;;;;;;26.60;91.30;;;;;;5096319;28;19952;-63
2022/01/29 09:15:27;;;;;;;;;;;26.70;91.40;;;;;;5096045;28;19924;-55
2022/01/29 09:17:53;;;;;;;;;;;26.70;91.40;;;;;;5096166;28;19974;-63
2022/01/29 09:20:20;;;;;;;;;;;26.60;91.40;;;;;;5095976;28;19908;-61
2022/01/29 09:22:47;;;;;;;;;;;26.60;91.40;;;;;;5095990;28;19908;-59
2022/01/29 09:25:14;;;;;;;;;;;26.60;91.40;;;;;;5095858;28;20400;-56
2022/01/29 09:27:41;;;;;;;;;;;26.60;91.50;;;;;;5096105;28;19953;-60
2022/01/29 09:30:10;;;;;;;;;;;26.60;91.50;;;;;;5096629;28;19908;-61
2022/01/29 09:32:37;;;;;;;;;;;26.50;91.40;;;;;;5096691;28;19969;-60
2022/01/29 09:35:05;;;;;;;;;;;26.50;91.50;;;;;;5095985;28;19930;-62
2022/01/29 09:37:32;;;;;;;;;;;26.50;91.60;;;;;;5095020;28;19967;-60
2022/01/29 09:40:08;;;;;;;;;;;26.50;91.60;;;;;;5095246;28;20380;-65
2022/01/29 09:42:35;;;;;;;;;;;26.50;91.60;;;;;;5094768;28;19912;-60
2022/01/29 09:45:02;;;;;;;;;;;26.50;91.70;;;;;;5096855;28;20012;-62
2022/01/29 09:47:30;;;;;;;;;;;26.50;91.70;;;;;;5095817;28;19915;-61
2022/01/29 09:49:57;;;;;;;;;;;26.50;91.70;;;;;;5095312;28;19938;-58
2022/01/29 09:52:24;;;;;;;;;;;26.50;91.70;;;;;;5094645;28;19908;-58
2022/01/29 09:54:51;;;;;;;;;;;26.40;91.70;;;;;;5096183;28;19908;-61
2022/01/29 09:57:18;;;;;;;;;;;26.40;91.70;;;;;;5096029;28;20401;-63
2022/01/29 09:59:46;;;;;;;;;;;26.40;91.70;;;;;;5094201;28;20003;-61
2022/01/29 10:02:14;;;;;;;;;;;26.40;91.70;;;;;;5095601;28;20259;-62
2022/01/29 10:04:55;;;;;;;;;;;26.40;91.70;;;;;;5127688;27;20272;-60
2022/01/29 10:07:34;;;;;;;;;;;26.40;91.80;;;;;;5095205;28;20270;-61
2022/01/29 10:10:03;;;;;;;;;;;26.40;91.80;;;;;;5095405;28;20329;-61
2022/01/29 10:12:34;;;;;;;;;;;26.40;91.90;;;;;;5095608;28;19912;-63
2022/01/29 10:15:08;;;;;;;;;;;26.40;91.80;;;;;;5095526;28;19984;-63
2022/01/29 10:17:48;;;;;;;;;;;26.40;91.80;;;;;;5094942;28;19916;-59
2022/01/29 10:20:28;;;;;;;;;;;26.40;91.90;;;;;;5093928;28;20354;-64
2022/01/29 10:22:56;;;;;;;;;;;26.40;91.90;;;;;;5095172;28;19912;-60
2022/01/29 10:25:33;;;;;;;;;;;26.40;91.90;;;;;;5095214;28;19915;-64
2022/01/29 10:28:05;;;;;;;;;;;26.30;91.90;;;;;;5094677;28;19915;-62
2022/01/29 10:30:34;;;;;;;;;;;26.30;92.00;;;;;;5095383;28;19915;-62
2022/01/29 10:33:21;;;;;;;;;;;26.30;91.90;;;;;;5095507;28;19920;-59
2022/01/29 10:35:49;;;;;;;;;;;26.30;91.90;;;;;;5092914;28;19908;-60
2022/01/29 10:38:20;;;;;;;;;;;26.30;91.90;;;;;;5094172;28;20009;-59
2022/01/29 10:40:50;;;;;;;;;;;26.30;92.00;;;;;;5094842;28;19908;-61
2022/01/29 10:43:17;;;;;;;;;;;26.30;92.10;;;;;;5093531;28;20081;-61
2022/01/29 10:45:47;;;;;;;;;;;26.30;92.10;;;;;;5094548;28;19908;-58
2022/01/29 10:48:13;;;;;;;;;;;26.30;92.10;;;;;;5093268;28;19908;-60
2022/01/29 10:50:40;;;;;;;;;;;26.30;92.20;;;;;;5094200;28;19908;-58
2022/01/29 10:53:26;;;;;;;;;;;26.30;92.10;;;;;;5094824;28;19961;-57
2022/01/29 10:56:06;;;;;;;;;;;26.30;92.20;;;;;;5094213;28;19908;-56
2022/01/29 10:58:50;;;;;;;;;;;26.30;92.20;;;;;;5094392;28;19916;-59
2022/01/29 11:01:23;;;;;;;;;;;26.30;92.20;;;;;;5094353;28;19908;-55
2022/01/29 11:03:54;;;;;;;;;;;26.30;92.20;;;;;;5093719;28;20296;-57
2022/01/29 11:06:28;;;;;;;;;;;26.30;92.20;;;;;;5092808;28;20408;-53
2022/01/29 11:08:57;;;;;;;;;;;26.30;92.20;;;;;;5093862;28;20448;-58
2022/01/29 11:11:25;;;;;;;;;;;26.20;92.30;;;;;;5094072;28;20358;-59
2022/01/29 11:13:52;;;;;;;;;;;26.30;92.20;;;;;;5093557;28;20390;-61
2022/01/29 11:16:19;;;;;;;;;;;26.30;92.30;;;;;;5093709;28;19908;-62
2022/01/29 11:18:45;;;;;;;;;;;26.20;92.20;;;;;;5093486;28;19916;-63
2022/01/29 11:21:12;;;;;;;;;;;26.20;92.20;;;;;;5093830;28;20025;-60
2022/01/29 11:23:41;;;;;;;;;;;26.30;92.20;;;;;;5093780;28;20061;-52
2022/01/29 11:26:07;;;;;;;;;;;26.20;92.20;;;;;;5093594;28;19908;-62
2022/01/29 11:28:35;;;;;;;;;;;26.20;92.30;;;;;;5093609;28;19908;-60
2022/01/29 11:31:20;;;;;;;;;;;26.20;92.10;;;;;;5093924;28;19916;-62
2022/01/29 11:33:59;;;;;;;;;;;26.20;92.30;;;;;;5093985;28;19915;-62
2022/01/29 11:36:49;;;;;;;;;;;26.20;92.30;;;;;;5093644;28;19908;-61
2022/01/29 11:39:19;;;;;;;;;;;26.20;92.30;;;;;;5093564;28;19920;-60
2022/01/29 11:41:46;;;;;;;;;;;26.20;92.30;;;;;;5093648;28;19908;-60
2022/01/29 11:44:26;;;;;;;;;;;26.20;92.30;;;;;;5093021;28;19989;-61
2022/01/29 11:46:55;;;;;;;;;;;26.10;92.30;;;;;;5093102;28;20282;-60
2022/01/29 11:49:22;;;;;;;;;;;26.10;92.30;;;;;;5092822;28;19915;-60
2022/01/29 11:51:49;;;;;;;;;;;26.10;92.40;;;;;;5093323;28;19908;-60
2022/01/29 11:54:18;;;;;;;;;;;26.10;92.40;;;;;;5092955;28;20012;-61
2022/01/29 11:56:47;;;;;;;;;;;26.10;92.40;;;;;;5093461;28;19924;-59
2022/01/29 11:59:18;;;;;;;;;;;26.10;92.40;;;;;;5091008;28;20209;-56
2022/01/29 12:01:48;;;;;;;;;;;26.10;92.40;;;;;;5092959;28;19916;-60
2022/01/29 12:04:18;;;;;;;;;;;26.10;92.40;;;;;;5092975;28;19916;-60
2022/01/29 12:07:03;;;;;;;;;;;26.10;92.40;;;;;;5093124;28;19912;-63
2022/01/29 12:09:34;;;;;;;;;;;26.10;92.50;;;;;;5092873;28;20310;-60
2022/01/29 12:12:17;;;;;;;;;;;26.10;92.50;;;;;;5092804;28;19912;-61
2022/01/29 12:14:45;;;;;;;;;;;26.00;92.40;;;;;;5093146;28;19999;-63
2022/01/29 12:17:13;;;;;;;;;;;26.00;92.40;;;;;;5092217;28;19934;-61
2022/01/29 12:19:40;;;;;;;;;;;26.00;92.80;;;;;;5092958;28;19916;-65
2022/01/29 12:22:18;;;;;;;;;;;26.00;92.50;;;;;;5093290;28;20079;-64
2022/01/29 12:24:54;;;;;;;;;;;26.00;92.60;;;;;;5092904;28;19962;-63
2022/01/29 12:27:21;;;;;;;;;;;26.00;92.50;;;;;;5093209;28;19908;-62
2022/01/29 12:29:47;;;;;;;;;;;26.00;92.50;;;;;;5093210;28;20355;-63
2022/01/29 12:32:14;;;;;;;;;;;26.00;92.50;;;;;;5092958;28;19978;-59
2022/01/29 12:34:41;;;;;;;;;;;26.00;92.50;;;;;;5092823;28;19919;-60
2022/01/29 12:37:08;;;;;;;;;;;26.00;92.50;;;;;;5091679;28;20388;-59
2022/01/29 12:39:39;;;;;;;;;;;25.90;92.50;;;;;;5093152;28;19922;-63
2022/01/29 12:44:57;;;;;;;;;;;25.90;92.50;;;;;;5093415;28;20011;-61
2022/01/29 12:47:28;;;;;;;;;;;25.90;92.60;;;;;;5093506;28;20022;-63
2022/01/29 12:49:55;;;;;;;;;;;25.90;92.60;;;;;;5092754;28;20373;-64
2022/01/29 12:52:22;;;;;;;;;;;25.90;92.50;;;;;;5093129;28;19961;-65
2022/01/29 12:54:59;;;;;;;;;;;25.90;92.50;;;;;;5091725;28;19908;-63
2022/01/29 12:57:27;;;;;;;;;;;25.90;92.50;;;;;;5093101;28;19958;-57
2022/01/29 12:59:54;;;;;;;;;;;25.90;92.60;;;;;;5093501;28;19951;-59
2022/01/29 13:02:21;;;;;;;;;;;25.90;92.70;;;;;;5097105;28;20339;-63
2022/01/29 13:04:48;;;;;;;;;;;25.90;92.60;;;;;;5096836;28;19915;-64
2022/01/29 13:07:17;;;;;;;;;;;25.90;92.70;;;;;;5097067;28;19912;-63
2022/01/29 13:09:44;;;;;;;;;;;25.90;92.70;;;;;;5096901;28;19920;-62
2022/01/29 13:12:12;;;;;;;;;;;25.90;92.70;;;;;;5096598;28;19912;-56
2022/01/29 13:14:39;;;;;;;;;;;25.90;92.80;;;;;;5097250;28;19912;-64
2022/01/29 13:17:07;;;;;;;;;;;25.90;92.80;;;;;;5096665;28;19961;-52
2022/01/29 13:19:35;;;;;;;;;;;25.80;92.80;;;;;;5095420;28;19912;-59
2022/01/29 13:22:01;;;;;;;;;;;25.80;92.80;;;;;;5096476;28;19915;-66
2022/01/29 13:24:30;;;;;;;;;;;25.80;92.90;;;;;;5096331;28;19912;-63
2022/01/29 13:27:07;;;;;;;;;;;25.80;92.90;;;;;;5096422;28;19908;-63
2022/01/29 13:29:35;;;;;;;;;;;25.80;92.80;;;;;;5096670;28;19942;-62
2022/01/29 13:32:02;;;;;;;;;;;25.70;92.90;;;;;;5096054;28;19908;-61
2022/01/29 13:34:30;;;;;;;;;;;25.80;92.90;;;;;;5096061;28;20345;-62
2022/01/29 13:36:57;;;;;;;;;;;25.80;92.90;;;;;;5095935;28;19934;-63
2022/01/29 13:39:27;;;;;;;;;;;25.70;92.90;;;;;;5096051;28;19915;-60
2022/01/29 13:42:08;;;;;;;;;;;25.70;92.90;;;;;;5096005;28;19915;-61
2022/01/29 13:44:35;;;;;;;;;;;25.70;92.90;;;;;;5095675;28;19959;-60
2022/01/29 13:47:08;;;;;;;;;;;25.70;93.00;;;;;;5095867;28;20376;-61
2022/01/29 13:49:36;;;;;;;;;;;25.70;93.00;;;;;;5095891;28;19961;-65
2022/01/29 13:52:13;;;;;;;;;;;25.70;93.00;;;;;;5095513;28;19908;-63
2022/01/29 13:54:40;;;;;;;;;;;25.70;93.00;;;;;;5095878;28;19908;-62
2022/01/29 13:57:07;;;;;;;;;;;25.60;93.00;;;;;;5095599;28;19908;-61
2022/01/29 13:59:37;;;;;;;;;;;25.70;93.00;;;;;;5095866;28;20057;-64
2022/01/29 14:02:04;;;;;;;;;;;25.60;93.00;;;;;;5095313;28;19960;-62
2022/01/29 14:04:43;;;;;;;;;;;25.60;93.00;;;;;;5095122;28;19915;-62
2022/01/29 14:07:19;;;;;;;;;;;25.70;93.00;;;;;;5094607;28;19908;-59
2022/01/29 14:09:55;;;;;;;;;;;25.60;93.00;;;;;;5095021;28;20031;-62
2022/01/29 14:12:23;;;;;;;;;;;25.60;93.00;;;;;;5095226;28;19908;-64
2022/01/29 14:14:51;;;;;;;;;;;25.70;93.00;;;;;;5095005;28;20278;-63
2022/01/29 14:17:18;;;;;;;;;;;25.60;92.90;;;;;;5095118;28;19956;-63
2022/01/29 14:19:46;;;;;;;;;;;25.60;93.00;;;;;;5094944;28;20290;-62
2022/01/29 14:22:14;;;;;;;;;;;25.60;93.00;;;;;;5094887;28;20002;-62
2022/01/29 14:24:42;;;;;;;;;;;25.60;93.00;;;;;;5095326;28;19946;-63
2022/01/29 14:27:09;;;;;;;;;;;25.60;93.00;;;;;;5127860;27;19907;-62
2022/01/29 14:29:36;;;;;;;;;;;25.60;93.00;;;;;;5095010;28;20261;-61
2022/01/29 14:32:03;;;;;;;;;;;25.60;93.00;;;;;;5094863;28;19908;-61
2022/01/29 14:34:30;;;;;;;;;;;25.60;93.00;;;;;;5094743;28;19914;-61
2022/01/29 14:36:58;;;;;;;;;;;25.60;93.00;;;;;;5094844;28;19908;-56